sensor_id;sensor_type;location;lat;lon;timestamp;P1;durP1;ratioP1;P2;durP2;ratioP2
28838;SDS011;15971;50.772;6.100;2022-08-01T00:01:45;1.77;;;1.13;;
28838;SDS011;15971;50.772;6.100;2022-08-01T00:04:11;3.60;;;1.33;;
28838;SDS011;15971;50.772;6.100;2022-08-01T00:06:36;4.18;;;1.70;;
28838;SDS011;15971;50.772;6.100;2022-08-01T00:09:02;4.05;;;1.40;;
28838;SDS011;15971;50.772;6.100;2022-08-01T00:11:27;1.23;;;1.08;;
28838;SDS011;15971;50.772;6.100;2022-08-01T00:13:53;3.70;;;1.30;;
28838;SDS011;15971;50.772;6.100;2022-08-01T00:16:19;7.15;;;1.52;;
28838;SDS011;15971;50.772;6.100;2022-08-01T00:18:47;2.15;;;1.42;;
28838;SDS011;15971;50.772;6.100;2022-08-01T00:21:14;2.13;;;1.35;;
28838;SDS011;15971;50.772;6.100;2022-08-01T00:23:40;6.47;;;1.38;;
28838;SDS011;15971;50.772;6.100;2022-08-01T00:26:06;5.88;;;1.65;;
28838;SDS011;15971;50.772;6.100;2022-08-01T00:28:31;4.25;;;1.73;;
28838;SDS011;15971;50.772;6.100;2022-08-01T00:30:58;5.95;;;1.85;;
28838;SDS011;15971;50.772;6.100;2022-08-01T00:33:24;5.55;;;1.90;;
28838;SDS011;15971;50.772;6.100;2022-08-01T00:35:49;4.10;;;1.70;;
28838;SDS011;15971;50.772;6.100;2022-08-01T00:38:15;4.07;;;1.75;;
28838;SDS011;15971;50.772;6.100;2022-08-01T00:40:40;2.53;;;1.67;;
28838;SDS011;15971;50.772;6.100;2022-08-01T00:43:06;18.73;;;6.18;;
28838;SDS011;15971;50.772;6.100;2022-08-01T00:45:32;2.70;;;1.63;;
28838;SDS011;15971;50.772;6.100;2022-08-01T00:47:57;2.97;;;1.73;;
28838;SDS011;15971;50.772;6.100;2022-08-01T00:50:23;3.17;;;1.48;;
28838;SDS011;15971;50.772;6.100;2022-08-01T00:52:49;2.75;;;1.50;;
28838;SDS011;15971;50.772;6.100;2022-08-01T00:55:15;3.95;;;2.05;;
28838;SDS011;15971;50.772;6.100;2022-08-01T00:57:43;3.90;;;1.63;;
28838;SDS011;15971;50.772;6.100;2022-08-01T01:00:09;4.78;;;2.40;;
28838;SDS011;15971;50.772;6.100;2022-08-01T01:02:35;5.03;;;1.95;;
28838;SDS011;15971;50.772;6.100;2022-08-01T01:05:01;8.52;;;1.70;;
28838;SDS011;15971;50.772;6.100;2022-08-01T01:10:20;2.80;;;1.42;;
28838;SDS011;15971;50.772;6.100;2022-08-01T01:12:59;1.98;;;1.45;;
28838;SDS011;15971;50.772;6.100;2022-08-01T01:15:49;3.03;;;1.60;;
28838;SDS011;15971;50.772;6.100;2022-08-01T01:18:23;2.72;;;1.60;;
28838;SDS011;15971;50.772;6.100;2022-08-01T01:29:25;5.60;;;1.70;;
28838;SDS011;15971;50.772;6.100;2022-08-01T01:32:06;1.85;;;1.08;;
28838;SDS011;15971;50.772;6.100;2022-08-01T01:34:37;4.18;;;1.80;;
28838;SDS011;15971;50.772;6.100;2022-08-01T01:37:08;3.75;;;1.60;;
28838;SDS011;15971;50.772;6.100;2022-08-01T01:39:37;3.83;;;1.60;;
28838;SDS011;15971;50.772;6.100;2022-08-01T01:42:05;4.57;;;1.60;;
28838;SDS011;15971;50.772;6.100;2022-08-01T01:44:32;4.65;;;1.50;;
28838;SDS011;15971;50.772;6.100;2022-08-01T01:47:00;2.53;;;1.42;;
28838;SDS011;15971;50.772;6.100;2022-08-01T01:49:27;1.70;;;1.10;;
28838;SDS011;15971;50.772;6.100;2022-08-01T01:51:55;4.53;;;2.10;;
28838;SDS011;15971;50.772;6.100;2022-08-01T01:54:22;3.90;;;1.50;;
28838;SDS011;15971;50.772;6.100;2022-08-01T01:56:52;4.18;;;1.67;;
28838;SDS011;15971;50.772;6.100;2022-08-01T01:59:24;5.50;;;2.00;;
28838;SDS011;15971;50.772;6.100;2022-08-01T02:01:53;3.28;;;1.83;;
28838;SDS011;15971;50.772;6.100;2022-08-01T02:04:23;4.25;;;1.70;;
28838;SDS011;15971;50.772;6.100;2022-08-01T02:06:50;6.05;;;1.45;;
28838;SDS011;15971;50.772;6.100;2022-08-01T02:09:18;2.20;;;1.52;;
28838;SDS011;15971;50.772;6.100;2022-08-01T02:11:46;3.15;;;1.38;;
28838;SDS011;15971;50.772;6.100;2022-08-01T02:14:14;2.25;;;1.65;;
28838;SDS011;15971;50.772;6.100;2022-08-01T02:16:42;3.40;;;1.48;;
28838;SDS011;15971;50.772;6.100;2022-08-01T02:19:11;2.72;;;1.58;;
28838;SDS011;15971;50.772;6.100;2022-08-01T02:24:11;3.15;;;2.08;;
28838;SDS011;15971;50.772;6.100;2022-08-01T02:26:39;4.50;;;1.83;;
28838;SDS011;15971;50.772;6.100;2022-08-01T02:29:09;3.22;;;1.60;;
28838;SDS011;15971;50.772;6.100;2022-08-01T02:31:38;4.93;;;1.95;;
28838;SDS011;15971;50.772;6.100;2022-08-01T02:34:09;2.97;;;2.05;;
28838;SDS011;15971;50.772;6.100;2022-08-01T02:36:37;4.85;;;1.65;;
28838;SDS011;15971;50.772;6.100;2022-08-01T02:39:06;6.90;;;1.67;;
28838;SDS011;15971;50.772;6.100;2022-08-01T02:41:36;6.88;;;2.33;;
28838;SDS011;15971;50.772;6.100;2022-08-01T02:44:07;3.00;;;1.70;;
28838;SDS011;15971;50.772;6.100;2022-08-01T02:46:43;5.60;;;1.67;;
28838;SDS011;15971;50.772;6.100;2022-08-01T02:49:15;7.38;;;1.70;;
28838;SDS011;15971;50.772;6.100;2022-08-01T02:51:44;3.97;;;1.77;;
28838;SDS011;15971;50.772;6.100;2022-08-01T02:54:12;3.38;;;1.98;;
28838;SDS011;15971;50.772;6.100;2022-08-01T02:56:40;3.38;;;1.45;;
28838;SDS011;15971;50.772;6.100;2022-08-01T02:59:09;4.60;;;1.80;;
28838;SDS011;15971;50.772;6.100;2022-08-01T03:01:38;3.78;;;1.63;;
28838;SDS011;15971;50.772;6.100;2022-08-01T03:04:04;2.63;;;1.45;;
28838;SDS011;15971;50.772;6.100;2022-08-01T03:06:32;2.50;;;1.63;;
28838;SDS011;15971;50.772;6.100;2022-08-01T03:08:59;6.35;;;2.15;;
28838;SDS011;15971;50.772;6.100;2022-08-01T03:11:27;3.40;;;1.52;;
28838;SDS011;15971;50.772;6.100;2022-08-01T03:13:55;3.85;;;2.08;;
28838;SDS011;15971;50.772;6.100;2022-08-01T03:16:23;4.10;;;2.58;;
28838;SDS011;15971;50.772;6.100;2022-08-01T03:18:51;6.47;;;2.03;;
28838;SDS011;15971;50.772;6.100;2022-08-01T03:21:20;3.90;;;2.00;;
28838;SDS011;15971;50.772;6.100;2022-08-01T03:23:48;5.50;;;2.15;;
28838;SDS011;15971;50.772;6.100;2022-08-01T03:26:16;2.75;;;2.13;;
28838;SDS011;15971;50.772;6.100;2022-08-01T03:28:44;10.73;;;2.40;;
28838;SDS011;15971;50.772;6.100;2022-08-01T03:31:12;4.30;;;2.20;;
28838;SDS011;15971;50.772;6.100;2022-08-01T03:33:38;7.13;;;2.03;;
28838;SDS011;15971;50.772;6.100;2022-08-01T03:36:04;4.32;;;2.00;;
28838;SDS011;15971;50.772;6.100;2022-08-01T03:38:34;7.07;;;2.33;;
28838;SDS011;15971;50.772;6.100;2022-08-01T03:41:15;6.05;;;2.13;;
28838;SDS011;15971;50.772;6.100;2022-08-01T03:43:47;5.60;;;1.88;;
28838;SDS011;15971;50.772;6.100;2022-08-01T03:46:24;3.10;;;2.28;;
28838;SDS011;15971;50.772;6.100;2022-08-01T03:48:55;2.72;;;2.05;;
28838;SDS011;15971;50.772;6.100;2022-08-01T03:51:23;3.28;;;1.88;;
28838;SDS011;15971;50.772;6.100;2022-08-01T03:53:50;4.38;;;2.35;;
28838;SDS011;15971;50.772;6.100;2022-08-01T03:56:19;4.78;;;2.10;;
28838;SDS011;15971;50.772;6.100;2022-08-01T03:58:46;5.45;;;2.40;;
28838;SDS011;15971;50.772;6.100;2022-08-01T04:01:13;5.68;;;2.30;;
28838;SDS011;15971;50.772;6.100;2022-08-01T04:03:39;7.78;;;2.70;;
28838;SDS011;15971;50.772;6.100;2022-08-01T04:06:06;8.35;;;3.30;;
28838;SDS011;15971;50.772;6.100;2022-08-01T04:08:36;6.63;;;2.60;;
28838;SDS011;15971;50.772;6.100;2022-08-01T04:11:03;4.82;;;2.50;;
28838;SDS011;15971;50.772;6.100;2022-08-01T04:13:30;4.53;;;2.17;;
28838;SDS011;15971;50.772;6.100;2022-08-01T04:15:56;6.05;;;2.75;;
28838;SDS011;15971;50.772;6.100;2022-08-01T04:18:22;6.60;;;2.60;;
28838;SDS011;15971;50.772;6.100;2022-08-01T04:20:47;6.97;;;2.60;;
28838;SDS011;15971;50.772;6.100;2022-08-01T04:23:14;10.40;;;2.50;;
28838;SDS011;15971;50.772;6.100;2022-08-01T04:25:43;5.30;;;2.60;;
28838;SDS011;15971;50.772;6.100;2022-08-01T04:28:12;6.47;;;2.58;;
28838;SDS011;15971;50.772;6.100;2022-08-01T04:30:41;4.25;;;2.63;;
28838;SDS011;15971;50.772;6.100;2022-08-01T04:33:10;5.85;;;2.42;;
28838;SDS011;15971;50.772;6.100;2022-08-01T04:35:38;5.57;;;2.65;;
28838;SDS011;15971;50.772;6.100;2022-08-01T04:38:06;7.35;;;2.63;;
28838;SDS011;15971;50.772;6.100;2022-08-01T04:40:34;9.13;;;2.72;;
28838;SDS011;15971;50.772;6.100;2022-08-01T04:43:01;4.88;;;2.70;;
28838;SDS011;15971;50.772;6.100;2022-08-01T04:45:27;5.45;;;3.28;;
28838;SDS011;15971;50.772;6.100;2022-08-01T04:47:54;9.43;;;2.88;;
28838;SDS011;15971;50.772;6.100;2022-08-01T04:50:20;9.82;;;2.60;;
28838;SDS011;15971;50.772;6.100;2022-08-01T04:52:47;5.07;;;2.97;;
28838;SDS011;15971;50.772;6.100;2022-08-01T04:55:12;4.43;;;2.83;;
28838;SDS011;15971;50.772;6.100;2022-08-01T04:57:41;4.75;;;3.22;;
28838;SDS011;15971;50.772;6.100;2022-08-01T05:00:09;7.90;;;3.33;;
28838;SDS011;15971;50.772;6.100;2022-08-01T05:02:36;6.43;;;3.63;;
28838;SDS011;15971;50.772;6.100;2022-08-01T05:05:02;7.15;;;3.65;;
28838;SDS011;15971;50.772;6.100;2022-08-01T05:07:28;4.85;;;3.38;;
28838;SDS011;15971;50.772;6.100;2022-08-01T05:09:53;12.55;;;3.83;;
28838;SDS011;15971;50.772;6.100;2022-08-01T05:12:19;9.55;;;3.40;;
28838;SDS011;15971;50.772;6.100;2022-08-01T05:14:45;6.68;;;4.18;;
28838;SDS011;15971;50.772;6.100;2022-08-01T05:17:11;6.35;;;3.45;;
28838;SDS011;15971;50.772;6.100;2022-08-01T05:19:37;9.70;;;3.95;;
28838;SDS011;15971;50.772;6.100;2022-08-01T05:22:05;7.22;;;3.72;;
28838;SDS011;15971;50.772;6.100;2022-08-01T05:24:33;6.78;;;3.80;;
28838;SDS011;15971;50.772;6.100;2022-08-01T05:27:00;7.78;;;4.10;;
28838;SDS011;15971;50.772;6.100;2022-08-01T05:29:26;10.80;;;3.75;;
28838;SDS011;15971;50.772;6.100;2022-08-01T05:31:52;11.75;;;5.50;;
28838;SDS011;15971;50.772;6.100;2022-08-01T05:34:18;9.90;;;4.72;;
28838;SDS011;15971;50.772;6.100;2022-08-01T05:36:45;7.35;;;4.72;;
28838;SDS011;15971;50.772;6.100;2022-08-01T05:39:11;10.85;;;4.45;;
28838;SDS011;15971;50.772;6.100;2022-08-01T05:41:37;10.82;;;4.68;;
28838;SDS011;15971;50.772;6.100;2022-08-01T05:44:03;8.27;;;5.18;;
28838;SDS011;15971;50.772;6.100;2022-08-01T05:46:29;9.80;;;4.60;;
28838;SDS011;15971;50.772;6.100;2022-08-01T05:48:58;7.60;;;4.38;;
28838;SDS011;15971;50.772;6.100;2022-08-01T05:51:25;10.32;;;4.50;;
28838;SDS011;15971;50.772;6.100;2022-08-01T05:53:51;7.95;;;3.65;;
28838;SDS011;15971;50.772;6.100;2022-08-01T05:56:17;8.93;;;4.57;;
28838;SDS011;15971;50.772;6.100;2022-08-01T05:58:42;12.80;;;4.95;;
28838;SDS011;15971;50.772;6.100;2022-08-01T06:01:08;11.32;;;4.90;;
28838;SDS011;15971;50.772;6.100;2022-08-01T06:03:34;11.75;;;4.60;;
28838;SDS011;15971;50.772;6.100;2022-08-01T06:05:59;8.77;;;5.45;;
28838;SDS011;15971;50.772;6.100;2022-08-01T06:08:25;8.90;;;5.18;;
28838;SDS011;15971;50.772;6.100;2022-08-01T06:10:51;13.95;;;6.70;;
28838;SDS011;15971;50.772;6.100;2022-08-01T06:13:17;21.25;;;6.90;;
28838;SDS011;15971;50.772;6.100;2022-08-01T06:15:44;12.68;;;6.65;;
28838;SDS011;15971;50.772;6.100;2022-08-01T06:18:10;14.68;;;6.60;;
28838;SDS011;15971;50.772;6.100;2022-08-01T06:20:36;14.80;;;7.53;;
28838;SDS011;15971;50.772;6.100;2022-08-01T06:23:01;10.65;;;6.82;;
28838;SDS011;15971;50.772;6.100;2022-08-01T06:25:27;12.90;;;6.82;;
28838;SDS011;15971;50.772;6.100;2022-08-01T06:27:53;14.75;;;6.93;;
28838;SDS011;15971;50.772;6.100;2022-08-01T06:30:18;15.15;;;7.03;;
28838;SDS011;15971;50.772;6.100;2022-08-01T06:32:44;12.30;;;6.88;;
28838;SDS011;15971;50.772;6.100;2022-08-01T06:35:10;10.93;;;6.00;;
28838;SDS011;15971;50.772;6.100;2022-08-01T06:37:36;14.90;;;6.30;;
28838;SDS011;15971;50.772;6.100;2022-08-01T06:40:02;11.13;;;7.28;;
28838;SDS011;15971;50.772;6.100;2022-08-01T06:42:28;12.63;;;6.70;;
28838;SDS011;15971;50.772;6.100;2022-08-01T06:44:56;12.80;;;7.25;;
28838;SDS011;15971;50.772;6.100;2022-08-01T06:47:22;11.55;;;6.03;;
28838;SDS011;15971;50.772;6.100;2022-08-01T06:49:48;9.30;;;5.68;;
28838;SDS011;15971;50.772;6.100;2022-08-01T06:52:14;9.63;;;5.88;;
28838;SDS011;15971;50.772;6.100;2022-08-01T06:54:39;12.50;;;6.70;;
28838;SDS011;15971;50.772;6.100;2022-08-01T06:57:05;14.55;;;6.97;;
28838;SDS011;15971;50.772;6.100;2022-08-01T06:59:31;14.38;;;6.57;;
28838;SDS011;15971;50.772;6.100;2022-08-01T07:01:56;13.45;;;6.82;;
28838;SDS011;15971;50.772;6.100;2022-08-01T07:04:22;11.80;;;6.88;;
28838;SDS011;15971;50.772;6.100;2022-08-01T07:06:47;9.40;;;6.40;;
28838;SDS011;15971;50.772;6.100;2022-08-01T07:09:13;13.90;;;7.00;;
28838;SDS011;15971;50.772;6.100;2022-08-01T07:11:39;10.73;;;5.78;;
28838;SDS011;15971;50.772;6.100;2022-08-01T07:14:04;9.48;;;6.35;;
28838;SDS011;15971;50.772;6.100;2022-08-01T07:16:30;18.15;;;9.68;;
28838;SDS011;15971;50.772;6.100;2022-08-01T07:18:55;8.93;;;6.30;;
28838;SDS011;15971;50.772;6.100;2022-08-01T07:21:21;9.98;;;6.18;;
28838;SDS011;15971;50.772;6.100;2022-08-01T07:23:46;13.48;;;6.18;;
28838;SDS011;15971;50.772;6.100;2022-08-01T07:26:12;9.23;;;5.93;;
28838;SDS011;15971;50.772;6.100;2022-08-01T07:28:38;9.82;;;6.40;;
28838;SDS011;15971;50.772;6.100;2022-08-01T07:31:03;16.65;;;6.70;;
28838;SDS011;15971;50.772;6.100;2022-08-01T07:33:29;10.95;;;5.93;;
28838;SDS011;15971;50.772;6.100;2022-08-01T07:35:55;18.58;;;8.35;;
28838;SDS011;15971;50.772;6.100;2022-08-01T07:38:21;20.33;;;13.20;;
28838;SDS011;15971;50.772;6.100;2022-08-01T07:40:46;18.88;;;11.75;;
28838;SDS011;15971;50.772;6.100;2022-08-01T07:43:12;12.88;;;7.50;;
28838;SDS011;15971;50.772;6.100;2022-08-01T07:45:38;16.40;;;7.63;;
28838;SDS011;15971;50.772;6.100;2022-08-01T07:48:04;14.57;;;8.70;;
28838;SDS011;15971;50.772;6.100;2022-08-01T07:50:31;13.77;;;7.55;;
28838;SDS011;15971;50.772;6.100;2022-08-01T07:52:57;15.32;;;8.30;;
28838;SDS011;15971;50.772;6.100;2022-08-01T07:55:22;12.18;;;8.25;;
28838;SDS011;15971;50.772;6.100;2022-08-01T07:57:48;14.38;;;7.95;;
28838;SDS011;15971;50.772;6.100;2022-08-01T08:00:14;13.15;;;8.40;;
28838;SDS011;15971;50.772;6.100;2022-08-01T08:02:40;14.05;;;8.15;;
28838;SDS011;15971;50.772;6.100;2022-08-01T08:05:06;12.23;;;7.30;;
28838;SDS011;15971;50.772;6.100;2022-08-01T08:07:32;21.30;;;13.45;;
28838;SDS011;15971;50.772;6.100;2022-08-01T08:09:58;19.40;;;10.32;;
28838;SDS011;15971;50.772;6.100;2022-08-01T08:12:24;10.68;;;7.38;;
28838;SDS011;15971;50.772;6.100;2022-08-01T08:14:49;16.58;;;8.10;;
28838;SDS011;15971;50.772;6.100;2022-08-01T08:17:15;10.98;;;7.82;;
28838;SDS011;15971;50.772;6.100;2022-08-01T08:19:41;17.38;;;8.23;;
28838;SDS011;15971;50.772;6.100;2022-08-01T08:22:07;12.38;;;7.38;;
28838;SDS011;15971;50.772;6.100;2022-08-01T08:24:34;11.77;;;6.68;;
28838;SDS011;15971;50.772;6.100;2022-08-01T08:27:00;12.18;;;7.10;;
28838;SDS011;15971;50.772;6.100;2022-08-01T08:29:27;14.00;;;7.63;;
28838;SDS011;15971;50.772;6.100;2022-08-01T08:31:55;12.77;;;8.52;;
28838;SDS011;15971;50.772;6.100;2022-08-01T08:34:21;12.02;;;8.05;;
28838;SDS011;15971;50.772;6.100;2022-08-01T08:36:47;10.82;;;7.32;;
28838;SDS011;15971;50.772;6.100;2022-08-01T08:39:13;12.07;;;6.97;;
28838;SDS011;15971;50.772;6.100;2022-08-01T08:41:39;11.43;;;5.95;;
28838;SDS011;15971;50.772;6.100;2022-08-01T08:44:05;19.05;;;12.18;;
28838;SDS011;15971;50.772;6.100;2022-08-01T08:46:32;11.93;;;6.47;;
28838;SDS011;15971;50.772;6.100;2022-08-01T08:48:59;8.65;;;5.47;;
28838;SDS011;15971;50.772;6.100;2022-08-01T08:51:26;9.55;;;6.15;;
28838;SDS011;15971;50.772;6.100;2022-08-01T08:53:55;9.75;;;6.05;;
28838;SDS011;15971;50.772;6.100;2022-08-01T08:56:23;9.07;;;5.45;;
28838;SDS011;15971;50.772;6.100;2022-08-01T08:58:49;7.70;;;5.28;;
28838;SDS011;15971;50.772;6.100;2022-08-01T09:01:16;11.77;;;5.55;;
28838;SDS011;15971;50.772;6.100;2022-08-01T09:03:42;7.43;;;5.20;;
28838;SDS011;15971;50.772;6.100;2022-08-01T09:06:09;8.95;;;4.80;;
28838;SDS011;15971;50.772;6.100;2022-08-01T09:08:35;9.38;;;5.35;;
28838;SDS011;15971;50.772;6.100;2022-08-01T09:11:01;8.30;;;4.60;;
28838;SDS011;15971;50.772;6.100;2022-08-01T09:13:28;9.57;;;5.05;;
28838;SDS011;15971;50.772;6.100;2022-08-01T09:15:54;9.50;;;5.65;;
28838;SDS011;15971;50.772;6.100;2022-08-01T09:18:37;10.93;;;5.72;;
28838;SDS011;15971;50.772;6.100;2022-08-01T09:21:09;7.47;;;4.88;;
28838;SDS011;15971;50.772;6.100;2022-08-01T09:23:42;7.95;;;5.18;;
28838;SDS011;15971;50.772;6.100;2022-08-01T09:26:11;20.38;;;8.02;;
28838;SDS011;15971;50.772;6.100;2022-08-01T09:28:39;13.35;;;8.25;;
28838;SDS011;15971;50.772;6.100;2022-08-01T09:31:06;12.98;;;8.52;;
28838;SDS011;15971;50.772;6.100;2022-08-01T09:36:13;10.32;;;7.30;;
28838;SDS011;15971;50.772;6.100;2022-08-01T09:38:39;9.43;;;6.15;;
28838;SDS011;15971;50.772;6.100;2022-08-01T09:41:04;11.82;;;6.55;;
28838;SDS011;15971;50.772;6.100;2022-08-01T09:43:32;13.10;;;9.00;;
28838;SDS011;15971;50.772;6.100;2022-08-01T09:45:58;14.80;;;9.10;;
28838;SDS011;15971;50.772;6.100;2022-08-01T09:48:29;11.73;;;9.05;;
28838;SDS011;15971;50.772;6.100;2022-08-01T09:50:57;16.55;;;8.90;;
28838;SDS011;15971;50.772;6.100;2022-08-01T09:53:23;11.90;;;8.18;;
28838;SDS011;15971;50.772;6.100;2022-08-01T09:55:49;14.00;;;8.25;;
28838;SDS011;15971;50.772;6.100;2022-08-01T09:58:17;15.38;;;7.90;;
28838;SDS011;15971;50.772;6.100;2022-08-01T10:00:44;10.93;;;7.30;;
28838;SDS011;15971;50.772;6.100;2022-08-01T10:03:27;9.27;;;6.20;;
28838;SDS011;15971;50.772;6.100;2022-08-01T10:05:54;11.57;;;6.45;;
28838;SDS011;15971;50.772;6.100;2022-08-01T10:08:20;10.93;;;7.18;;
28838;SDS011;15971;50.772;6.100;2022-08-01T10:11:04;7.80;;;5.13;;
28838;SDS011;15971;50.772;6.100;2022-08-01T10:13:33;11.35;;;6.05;;
28838;SDS011;15971;50.772;6.100;2022-08-01T10:15:59;8.70;;;4.97;;
28838;SDS011;15971;50.772;6.100;2022-08-01T10:18:25;7.43;;;4.75;;
28838;SDS011;15971;50.772;6.100;2022-08-01T10:20:53;9.55;;;5.10;;
28838;SDS011;15971;50.772;6.100;2022-08-01T10:23:19;7.95;;;4.18;;
28838;SDS011;15971;50.772;6.100;2022-08-01T10:25:46;10.52;;;4.57;;
28838;SDS011;15971;50.772;6.100;2022-08-01T10:28:14;7.47;;;5.28;;
28838;SDS011;15971;50.772;6.100;2022-08-01T10:30:43;9.98;;;5.95;;
28838;SDS011;15971;50.772;6.100;2022-08-01T10:33:10;7.45;;;5.38;;
28838;SDS011;15971;50.772;6.100;2022-08-01T10:35:37;10.48;;;4.80;;
28838;SDS011;15971;50.772;6.100;2022-08-01T10:38:03;6.13;;;4.65;;
28838;SDS011;15971;50.772;6.100;2022-08-01T10:40:30;10.00;;;6.43;;
28838;SDS011;15971;50.772;6.100;2022-08-01T10:42:56;7.55;;;5.20;;
28838;SDS011;15971;50.772;6.100;2022-08-01T10:45:23;8.38;;;4.95;;
28838;SDS011;15971;50.772;6.100;2022-08-01T10:50:35;5.90;;;3.90;;
28838;SDS011;15971;50.772;6.100;2022-08-01T10:55:59;5.40;;;3.90;;
28838;SDS011;15971;50.772;6.100;2022-08-01T10:58:27;7.47;;;4.30;;
28838;SDS011;15971;50.772;6.100;2022-08-01T11:01:17;8.93;;;6.15;;
28838;SDS011;15971;50.772;6.100;2022-08-01T11:03:58;11.45;;;6.07;;
28838;SDS011;15971;50.772;6.100;2022-08-01T11:09:05;9.38;;;5.47;;
28838;SDS011;15971;50.772;6.100;2022-08-01T11:14:35;8.57;;;4.55;;
28838;SDS011;15971;50.772;6.100;2022-08-01T11:17:35;6.15;;;3.97;;
28838;SDS011;15971;50.772;6.100;2022-08-01T11:20:06;7.10;;;4.15;;
28838;SDS011;15971;50.772;6.100;2022-08-01T11:30:43;6.30;;;4.57;;
28838;SDS011;15971;50.772;6.100;2022-08-01T11:33:14;7.00;;;3.38;;
28838;SDS011;15971;50.772;6.100;2022-08-01T11:41:23;4.10;;;3.55;;
28838;SDS011;15971;50.772;6.100;2022-08-01T11:59:48;5.47;;;3.47;;
28838;SDS011;15971;50.772;6.100;2022-08-01T12:04:57;5.40;;;3.50;;
28838;SDS011;15971;50.772;6.100;2022-08-01T12:07:24;4.25;;;3.25;;
28838;SDS011;15971;50.772;6.100;2022-08-01T12:09:59;4.43;;;3.25;;
28838;SDS011;15971;50.772;6.100;2022-08-01T12:12:45;4.50;;;3.60;;
28838;SDS011;15971;50.772;6.100;2022-08-01T12:15:13;4.28;;;3.25;;
28838;SDS011;15971;50.772;6.100;2022-08-01T12:17:46;7.13;;;3.60;;
28838;SDS011;15971;50.772;6.100;2022-08-01T12:20:14;5.40;;;4.03;;
28838;SDS011;15971;50.772;6.100;2022-08-01T12:22:44;5.97;;;3.72;;
28838;SDS011;15971;50.772;6.100;2022-08-01T12:25:14;5.03;;;3.63;;
28838;SDS011;15971;50.772;6.100;2022-08-01T12:27:42;6.63;;;3.45;;
28838;SDS011;15971;50.772;6.100;2022-08-01T12:30:16;5.32;;;3.63;;
28838;SDS011;15971;50.772;6.100;2022-08-01T12:32:44;4.45;;;2.60;;
28838;SDS011;15971;50.772;6.100;2022-08-01T12:35:15;5.97;;;3.25;;
28838;SDS011;15971;50.772;6.100;2022-08-01T12:37:43;3.92;;;3.00;;
28838;SDS011;15971;50.772;6.100;2022-08-01T12:42:40;6.05;;;2.80;;
28838;SDS011;15971;50.772;6.100;2022-08-01T12:45:10;4.78;;;2.75;;
28838;SDS011;15971;50.772;6.100;2022-08-01T12:47:38;4.88;;;2.85;;
28838;SDS011;15971;50.772;6.100;2022-08-01T12:50:05;3.55;;;2.95;;
28838;SDS011;15971;50.772;6.100;2022-08-01T12:52:33;4.95;;;3.00;;
28838;SDS011;15971;50.772;6.100;2022-08-01T12:55:03;4.57;;;3.15;;
28838;SDS011;15971;50.772;6.100;2022-08-01T12:57:31;4.15;;;2.75;;
28838;SDS011;15971;50.772;6.100;2022-08-01T13:02:49;7.68;;;3.42;;
28838;SDS011;15971;50.772;6.100;2022-08-01T13:05:51;3.78;;;2.58;;
28838;SDS011;15971;50.772;6.100;2022-08-01T13:08:22;3.38;;;2.53;;
28838;SDS011;15971;50.772;6.100;2022-08-01T13:10:50;4.85;;;3.05;;
28838;SDS011;15971;50.772;6.100;2022-08-01T13:13:24;4.72;;;3.28;;
28838;SDS011;15971;50.772;6.100;2022-08-01T13:16:05;3.50;;;2.78;;
28838;SDS011;15971;50.772;6.100;2022-08-01T13:18:32;2.95;;;2.63;;
28838;SDS011;15971;50.772;6.100;2022-08-01T13:23:37;3.25;;;2.55;;
28838;SDS011;15971;50.772;6.100;2022-08-01T13:26:06;3.10;;;2.25;;
28838;SDS011;15971;50.772;6.100;2022-08-01T13:28:33;4.75;;;1.80;;
28838;SDS011;15971;50.772;6.100;2022-08-01T13:33:41;2.35;;;1.58;;
28838;SDS011;15971;50.772;6.100;2022-08-01T13:36:09;2.03;;;1.30;;
28838;SDS011;15971;50.772;6.100;2022-08-01T13:38:35;4.60;;;1.40;;
28838;SDS011;15971;50.772;6.100;2022-08-01T13:41:19;2.03;;;1.23;;
28838;SDS011;15971;50.772;6.100;2022-08-01T13:43:45;2.72;;;1.40;;
28838;SDS011;15971;50.772;6.100;2022-08-01T13:46:11;2.58;;;1.70;;
28838;SDS011;15971;50.772;6.100;2022-08-01T13:48:36;1.20;;;1.10;;
28838;SDS011;15971;50.772;6.100;2022-08-01T13:51:02;4.22;;;2.38;;
28838;SDS011;15971;50.772;6.100;2022-08-01T13:53:28;5.28;;;2.50;;
28838;SDS011;15971;50.772;6.100;2022-08-01T13:55:53;2.95;;;2.10;;
28838;SDS011;15971;50.772;6.100;2022-08-01T13:58:19;8.05;;;2.55;;
28838;SDS011;15971;50.772;6.100;2022-08-01T14:00:45;3.15;;;2.15;;
28838;SDS011;15971;50.772;6.100;2022-08-01T14:03:11;4.13;;;2.10;;
28838;SDS011;15971;50.772;6.100;2022-08-01T14:05:37;2.97;;;2.30;;
28838;SDS011;15971;50.772;6.100;2022-08-01T14:08:03;2.60;;;1.65;;
28838;SDS011;15971;50.772;6.100;2022-08-01T14:10:29;3.08;;;1.85;;
28838;SDS011;15971;50.772;6.100;2022-08-01T14:12:54;3.17;;;1.67;;
28838;SDS011;15971;50.772;6.100;2022-08-01T14:15:22;4.45;;;2.13;;
28838;SDS011;15971;50.772;6.100;2022-08-01T14:17:48;4.38;;;2.00;;
28838;SDS011;15971;50.772;6.100;2022-08-01T14:20:13;4.68;;;2.17;;
28838;SDS011;15971;50.772;6.100;2022-08-01T14:22:39;2.92;;;1.90;;
28838;SDS011;15971;50.772;6.100;2022-08-01T14:25:05;2.00;;;1.50;;
28838;SDS011;15971;50.772;6.100;2022-08-01T14:27:31;2.13;;;1.90;;
28838;SDS011;15971;50.772;6.100;2022-08-01T14:30:01;2.00;;;1.80;;
28838;SDS011;15971;50.772;6.100;2022-08-01T14:32:27;1.80;;;1.50;;
28838;SDS011;15971;50.772;6.100;2022-08-01T14:34:52;2.95;;;1.73;;
28838;SDS011;15971;50.772;6.100;2022-08-01T14:37:18;4.75;;;1.77;;
28838;SDS011;15971;50.772;6.100;2022-08-01T14:39:44;4.15;;;2.03;;
28838;SDS011;15971;50.772;6.100;2022-08-01T14:42:09;9.15;;;2.92;;
28838;SDS011;15971;50.772;6.100;2022-08-01T14:44:35;2.50;;;1.80;;
28838;SDS011;15971;50.772;6.100;2022-08-01T14:47:00;4.95;;;1.42;;
28838;SDS011;15971;50.772;6.100;2022-08-01T14:49:26;2.67;;;1.55;;
28838;SDS011;15971;50.772;6.100;2022-08-01T14:51:52;3.58;;;1.80;;
28838;SDS011;15971;50.772;6.100;2022-08-01T14:54:17;5.75;;;1.70;;
28838;SDS011;15971;50.772;6.100;2022-08-01T14:56:44;2.67;;;1.92;;
28838;SDS011;15971;50.772;6.100;2022-08-01T14:59:10;4.45;;;1.60;;
28838;SDS011;15971;50.772;6.100;2022-08-01T15:01:35;2.75;;;1.75;;
28838;SDS011;15971;50.772;6.100;2022-08-01T15:04:01;2.05;;;1.50;;
28838;SDS011;15971;50.772;6.100;2022-08-01T15:06:26;2.42;;;1.60;;
28838;SDS011;15971;50.772;6.100;2022-08-01T15:08:52;6.97;;;2.33;;
28838;SDS011;15971;50.772;6.100;2022-08-01T15:11:17;3.45;;;1.75;;
28838;SDS011;15971;50.772;6.100;2022-08-01T15:13:43;4.63;;;1.90;;
28838;SDS011;15971;50.772;6.100;2022-08-01T15:16:09;6.22;;;1.38;;
28838;SDS011;15971;50.772;6.100;2022-08-01T15:18:35;3.40;;;1.83;;
28838;SDS011;15971;50.772;6.100;2022-08-01T15:21:00;3.30;;;2.30;;
28838;SDS011;15971;50.772;6.100;2022-08-01T15:23:26;4.97;;;2.75;;
28838;SDS011;15971;50.772;6.100;2022-08-01T15:25:51;6.38;;;1.77;;
28838;SDS011;15971;50.772;6.100;2022-08-01T15:28:17;3.75;;;2.15;;
28838;SDS011;15971;50.772;6.100;2022-08-01T15:30:44;4.95;;;2.53;;
28838;SDS011;15971;50.772;6.100;2022-08-01T15:33:10;2.55;;;1.83;;
28838;SDS011;15971;50.772;6.100;2022-08-01T15:35:35;6.03;;;2.70;;
28838;SDS011;15971;50.772;6.100;2022-08-01T15:38:01;4.95;;;2.10;;
28838;SDS011;15971;50.772;6.100;2022-08-01T15:40:27;5.55;;;2.20;;
28838;SDS011;15971;50.772;6.100;2022-08-01T15:42:53;4.10;;;2.28;;
28838;SDS011;15971;50.772;6.100;2022-08-01T15:45:18;4.25;;;2.30;;
28838;SDS011;15971;50.772;6.100;2022-08-01T15:47:45;3.10;;;2.15;;
28838;SDS011;15971;50.772;6.100;2022-08-01T15:50:11;2.95;;;1.92;;
28838;SDS011;15971;50.772;6.100;2022-08-01T15:52:37;3.55;;;1.77;;
28838;SDS011;15971;50.772;6.100;2022-08-01T15:55:03;5.68;;;3.45;;
28838;SDS011;15971;50.772;6.100;2022-08-01T15:57:29;5.75;;;1.75;;